createdAt,value
2018-08-04T00:01:59.816Z,9.60
2018-08-04T00:04:29.621Z,9.70
2018-08-04T00:07:00.078Z,7.97
2018-08-04T00:09:30.128Z,9.73
2018-08-04T00:12:00.968Z,11.70
2018-08-04T00:14:31.361Z,8.30
2018-08-04T00:17:01.131Z,10.67
2018-08-04T00:19:31.379Z,8.47
2018-08-04T00:22:02.313Z,10.03
2018-08-04T00:24:32.648Z,7.63
2018-08-04T00:27:04.283Z,8.00
2018-08-04T00:29:34.507Z,9.40
2018-08-04T00:32:04.551Z,8.70
2018-08-04T00:34:34.962Z,10.20
2018-08-04T00:37:06.210Z,10.80
2018-08-04T00:39:36.927Z,8.90
2018-08-04T00:42:06.985Z,9.60
2018-08-04T00:44:36.718Z,8.43
2018-08-04T00:47:07.475Z,10.63
2018-08-04T00:49:37.006Z,9.23
2018-08-04T00:52:08.212Z,12.27
2018-08-04T00:54:37.371Z,9.00
2018-08-04T00:57:06.362Z,11.83
2018-08-04T00:59:35.335Z,10.13
2018-08-04T01:02:04.312Z,11.80
2018-08-04T01:04:33.383Z,9.13
2018-08-04T01:07:02.352Z,13.73
2018-08-04T01:09:31.310Z,8.97
2018-08-04T01:12:00.326Z,10.33
2018-08-04T01:14:29.303Z,11.50
2018-08-04T01:16:58.324Z,8.70
2018-08-04T01:19:27.299Z,10.90
2018-08-04T01:21:56.267Z,10.40
2018-08-04T01:24:25.291Z,9.30
2018-08-04T01:26:54.232Z,14.27
2018-08-04T01:29:23.195Z,9.90
2018-08-04T01:31:52.155Z,15.43
2018-08-04T01:34:21.179Z,10.67
2018-08-04T01:36:50.178Z,9.17
2018-08-04T01:39:19.153Z,10.90
2018-08-04T01:41:48.167Z,10.70
2018-08-04T01:44:17.164Z,11.77
2018-08-04T01:46:46.165Z,10.20
2018-08-04T01:49:15.187Z,10.90
2018-08-04T01:51:44.263Z,9.70
2018-08-04T01:54:13.243Z,10.37
2018-08-04T01:56:42.183Z,15.30
2018-08-04T01:59:11.234Z,11.00
2018-08-04T02:01:40.173Z,12.53
2018-08-04T02:04:09.194Z,11.30
2018-08-04T02:06:38.200Z,9.60
2018-08-04T02:09:08.214Z,16.67
2018-08-04T02:11:37.194Z,12.10
2018-08-04T02:14:06.247Z,10.80
2018-08-04T02:16:35.323Z,13.20
2018-08-04T02:19:04.300Z,10.97
2018-08-04T02:21:33.262Z,16.63
2018-08-04T02:24:02.243Z,13.23
2018-08-04T02:26:31.279Z,16.07
2018-08-04T02:29:00.231Z,16.00
2018-08-04T02:31:29.239Z,14.83
2018-08-04T02:33:58.248Z,10.70
2018-08-04T02:36:27.232Z,11.00
2018-08-04T02:38:56.199Z,11.03
2018-08-04T02:41:25.314Z,10.90
2018-08-04T02:43:54.311Z,13.20
2018-08-04T02:46:23.337Z,11.33
2018-08-04T02:48:52.326Z,14.67
2018-08-04T02:51:21.358Z,15.50
2018-08-04T02:53:50.336Z,13.47
2018-08-04T02:56:19.307Z,11.90
2018-08-04T02:58:48.256Z,12.33
2018-08-04T03:01:17.383Z,15.33
2018-08-04T03:03:46.360Z,13.83
2018-08-04T03:06:15.367Z,12.40
2018-08-04T03:08:44.339Z,12.10
2018-08-04T03:11:13.332Z,12.50
2018-08-04T03:13:42.317Z,15.10
2018-08-04T03:16:11.309Z,13.83
2018-08-04T03:18:41.306Z,13.03
2018-08-04T03:21:10.252Z,12.67
2018-08-04T03:23:39.222Z,12.70
2018-08-04T03:26:08.193Z,13.00
2018-08-04T03:28:37.199Z,12.97
2018-08-04T03:31:06.178Z,16.43
2018-08-04T03:33:35.163Z,12.60
2018-08-04T03:36:04.205Z,12.40
2018-08-04T03:38:33.127Z,12.57
2018-08-04T03:41:02.179Z,14.20
2018-08-04T03:43:31.147Z,18.47
2018-08-04T03:46:00.108Z,14.37
2018-08-04T03:48:29.075Z,13.27
2018-08-04T03:50:58.052Z,14.43
2018-08-04T03:53:27.131Z,12.83
2018-08-04T03:55:56.100Z,12.13
2018-08-04T03:58:25.063Z,13.50
2018-08-04T04:00:54.052Z,12.83
2018-08-04T04:03:23.054Z,15.43
2018-08-04T04:05:52.061Z,13.03
2018-08-04T04:08:21.019Z,12.70
2018-08-04T04:10:49.970Z,12.97
2018-08-04T04:13:18.943Z,20.27
2018-08-04T04:15:47.960Z,12.67
2018-08-04T04:18:16.987Z,14.10
2018-08-04T04:20:45.947Z,12.80
2018-08-04T04:23:15.030Z,14.50
2018-08-04T04:25:44.000Z,16.40
2018-08-04T04:28:13.000Z,14.17
2018-08-04T04:30:42.008Z,14.43
2018-08-04T04:33:10.966Z,14.20
2018-08-04T04:35:39.952Z,12.97
2018-08-04T04:38:08.895Z,13.77
2018-08-04T04:40:37.891Z,15.20
2018-08-04T04:43:06.898Z,14.43
2018-08-04T04:45:35.891Z,13.80
2018-08-04T04:48:05.031Z,21.20
2018-08-04T04:50:34.140Z,14.20
2018-08-04T04:53:03.107Z,18.57
2018-08-04T04:55:32.230Z,13.27
2018-08-04T04:58:01.176Z,15.77
2018-08-04T05:00:30.271Z,17.50
2018-08-04T05:02:59.472Z,17.67
2018-08-04T05:05:28.523Z,15.17
2018-08-04T05:07:57.612Z,15.03
2018-08-04T05:10:26.809Z,17.30
2018-08-04T05:12:55.842Z,12.70
2018-08-04T05:15:25.006Z,13.90
2018-08-04T05:17:54.060Z,15.03
2018-08-04T05:20:23.174Z,14.80
2018-08-04T05:22:52.217Z,14.70
2018-08-04T05:25:21.236Z,13.97
2018-08-04T05:27:50.253Z,16.17
2018-08-04T05:30:19.243Z,13.93
2018-08-04T05:32:48.291Z,18.87
2018-08-04T05:35:17.559Z,14.67
2018-08-04T05:37:47.335Z,13.17
2018-08-04T05:40:16.351Z,16.73
2018-08-04T05:42:45.299Z,12.57
2018-08-04T05:45:14.372Z,14.00
2018-08-04T05:47:43.386Z,16.50
2018-08-04T05:50:12.521Z,15.40
2018-08-04T05:52:41.498Z,16.23
2018-08-04T05:55:10.584Z,13.53
2018-08-04T05:57:39.561Z,13.53
2018-08-04T06:00:09.206Z,15.27
2018-08-04T06:02:38.374Z,13.47
2018-08-04T06:05:07.917Z,18.50
2018-08-04T06:07:38.014Z,12.57
2018-08-04T06:10:07.030Z,13.50
2018-08-04T06:12:36.170Z,13.57
2018-08-04T06:15:05.376Z,16.13
2018-08-04T06:17:34.411Z,12.73
2018-08-04T06:20:03.443Z,12.97
2018-08-04T06:22:32.503Z,14.10
2018-08-04T06:25:01.547Z,14.73
2018-08-04T06:27:30.616Z,12.10
2018-08-04T06:29:59.628Z,19.80
2018-08-04T06:32:28.639Z,11.57
2018-08-04T06:34:57.703Z,10.70
2018-08-04T06:37:26.716Z,11.33
2018-08-04T06:39:56.248Z,13.47
2018-08-04T06:42:25.641Z,14.53
2018-08-04T06:44:54.622Z,10.33
2018-08-04T06:47:23.658Z,11.20
2018-08-04T06:49:52.639Z,12.27
2018-08-04T06:52:21.716Z,11.47
2018-08-04T06:54:50.743Z,11.67
2018-08-04T06:57:19.778Z,14.53
2018-08-04T06:59:49.839Z,9.20
2018-08-04T07:02:18.837Z,15.33
2018-08-04T07:04:47.874Z,12.10
2018-08-04T07:07:16.876Z,11.57
2018-08-04T07:09:45.849Z,12.13
2018-08-04T07:12:14.905Z,10.37
2018-08-04T07:14:43.932Z,11.93
2018-08-04T07:17:12.960Z,13.70
2018-08-04T07:19:41.983Z,12.10
2018-08-04T07:22:10.967Z,9.53
2018-08-04T07:24:40.115Z,10.27
2018-08-04T07:27:09.319Z,14.43
2018-08-04T07:29:38.324Z,10.30
2018-08-04T07:32:07.339Z,10.70
2018-08-04T07:34:36.351Z,9.93
2018-08-04T07:37:05.811Z,12.60
2018-08-04T07:39:34.856Z,10.03
2018-08-04T07:42:03.844Z,10.40
2018-08-04T07:44:32.876Z,9.43
2018-08-04T07:47:01.883Z,10.03
2018-08-04T07:49:30.950Z,12.43
2018-08-04T07:52:00.108Z,9.57
2018-08-04T07:54:29.145Z,11.83
2018-08-04T07:56:58.209Z,12.30
2018-08-04T07:59:27.336Z,8.27
2018-08-04T08:01:56.315Z,9.60
2018-08-04T08:04:25.628Z,9.40
2018-08-04T08:06:54.682Z,14.70
2018-08-04T08:09:23.824Z,15.90
2018-08-04T08:11:52.923Z,10.10
2018-08-04T08:14:22.040Z,12.77
2018-08-04T08:16:51.100Z,11.50
2018-08-04T08:19:20.130Z,8.70
2018-08-04T08:21:49.188Z,9.17
2018-08-04T08:24:18.291Z,9.03
2018-08-04T08:26:47.400Z,8.80
2018-08-04T08:29:16.477Z,9.33
2018-08-04T08:31:45.488Z,12.00
2018-08-04T08:34:14.547Z,9.63
2018-08-04T08:36:43.567Z,8.53
2018-08-04T08:39:12.686Z,8.47
2018-08-04T08:41:41.739Z,9.93
2018-08-04T08:44:10.906Z,8.20
2018-08-04T08:49:15.050Z,14.47
2018-08-04T08:51:44.369Z,8.13
2018-08-04T08:54:14.649Z,16.73
2018-08-04T08:56:43.704Z,8.50
2018-08-04T08:59:13.827Z,8.87
2018-08-04T09:01:43.055Z,8.47
2018-08-04T09:04:12.134Z,8.97
2018-08-04T09:06:41.210Z,7.27
2018-08-04T09:09:10.955Z,12.13
2018-08-04T09:11:40.017Z,8.30
2018-08-04T09:14:09.074Z,8.63
2018-08-04T09:16:38.230Z,11.47
2018-08-04T09:19:07.416Z,16.80
2018-08-04T09:21:36.483Z,9.97
2018-08-04T09:24:05.599Z,8.60
2018-08-04T09:26:34.637Z,7.50
2018-08-04T09:29:03.735Z,8.77
2018-08-04T09:31:32.807Z,8.80
2018-08-04T09:34:01.861Z,12.60
2018-08-04T09:36:30.916Z,6.87
2018-08-04T09:38:59.992Z,6.67
2018-08-04T09:41:29.090Z,13.27
2018-08-04T09:43:58.082Z,8.67
2018-08-04T09:46:27.129Z,9.10
2018-08-04T09:48:56.151Z,7.00
2018-08-04T09:51:25.176Z,6.90
2018-08-04T09:53:54.154Z,7.00
2018-08-04T09:56:23.209Z,7.03
2018-08-04T09:58:52.259Z,9.90
2018-08-04T10:01:26.468Z,9.13
2018-08-04T10:03:55.555Z,6.17
2018-08-04T10:06:24.574Z,6.17
2018-08-04T10:08:53.647Z,6.83
2018-08-04T10:11:22.629Z,7.03
2018-08-04T10:13:51.597Z,9.53
2018-08-04T10:16:20.676Z,7.07
2018-08-04T10:18:49.756Z,9.80
2018-08-04T10:21:18.831Z,5.67
2018-08-04T10:23:47.929Z,6.30
2018-08-04T10:26:16.887Z,9.90
2018-08-04T10:28:46.048Z,10.10
2018-08-04T10:31:15.226Z,6.43
2018-08-04T10:33:44.240Z,14.20
2018-08-04T10:36:13.331Z,6.83
2018-08-04T10:38:42.458Z,10.17
2018-08-04T10:41:11.460Z,8.30
2018-08-04T10:43:40.487Z,10.43
2018-08-04T10:46:09.542Z,5.70
2018-08-04T10:48:38.570Z,9.47
2018-08-04T10:51:07.703Z,10.77
2018-08-04T10:53:36.748Z,10.23
2018-08-04T10:56:05.907Z,6.10
2018-08-04T10:58:35.009Z,12.67
2018-08-04T11:01:04.112Z,8.37
2018-08-04T11:03:33.126Z,7.83
2018-08-04T11:06:02.225Z,11.60
2018-08-04T11:08:31.260Z,20.50
2018-08-04T11:11:00.411Z,7.70
2018-08-04T11:13:29.466Z,12.53
2018-08-04T11:15:58.785Z,8.63
2018-08-04T11:18:27.795Z,8.97
2018-08-04T11:20:56.890Z,11.10
2018-08-04T11:23:25.989Z,10.80
2018-08-04T11:25:55.090Z,9.47
2018-08-04T11:28:24.160Z,6.10
2018-08-04T11:30:53.209Z,5.47
2018-08-04T11:33:22.443Z,11.13
2018-08-04T11:35:51.576Z,6.13
2018-08-04T11:38:20.675Z,8.17
2018-08-04T11:40:49.795Z,6.07
2018-08-04T11:43:18.844Z,6.93
2018-08-04T11:45:47.926Z,7.70
2018-08-04T11:48:17.009Z,8.90
2018-08-04T11:50:46.102Z,7.33
2018-08-04T11:53:15.195Z,8.53
2018-08-04T11:55:44.236Z,8.90
2018-08-04T11:58:13.302Z,9.33
2018-08-04T12:00:42.366Z,6.97
2018-08-04T12:03:11.451Z,8.67
2018-08-04T12:05:40.618Z,15.37
2018-08-04T12:08:09.630Z,6.23
2018-08-04T12:10:38.681Z,8.07
2018-08-04T12:13:07.737Z,11.27
2018-08-04T12:15:36.767Z,7.63
2018-08-04T12:18:05.936Z,6.60
2018-08-04T12:20:34.931Z,6.97
2018-08-04T12:23:04.025Z,7.70
2018-08-04T12:25:33.138Z,10.70
2018-08-04T12:28:02.131Z,7.27
2018-08-04T12:30:31.203Z,8.47
2018-08-04T12:33:01.198Z,6.50
2018-08-04T12:35:30.336Z,8.03
2018-08-04T12:37:59.395Z,10.27
2018-08-04T12:40:28.495Z,6.23
2018-08-04T12:42:57.519Z,11.20
2018-08-04T12:45:26.643Z,5.17
2018-08-04T12:47:55.821Z,9.93
2018-08-04T12:50:24.826Z,6.97
2018-08-04T12:52:53.847Z,5.93
2018-08-04T12:55:22.864Z,10.33
2018-08-04T12:57:51.886Z,9.30
2018-08-04T13:00:21.008Z,10.27
2018-08-04T13:02:50.456Z,7.40
2018-08-04T13:05:19.489Z,5.40
2018-08-04T13:07:48.468Z,6.60
2018-08-04T13:10:17.459Z,13.40
2018-08-04T13:12:46.463Z,5.23
2018-08-04T13:15:15.414Z,5.90
2018-08-04T13:17:44.432Z,5.27
2018-08-04T13:20:13.372Z,8.50
2018-08-04T13:22:42.384Z,6.20
2018-08-04T13:25:11.647Z,4.53
2018-08-04T13:27:40.705Z,6.53
2018-08-04T13:30:09.753Z,4.20
2018-08-04T13:32:38.932Z,3.93
2018-08-04T13:35:08.400Z,4.13
2018-08-04T13:37:37.518Z,7.80
2018-08-04T13:40:06.656Z,3.00
2018-08-04T13:42:35.793Z,3.37
2018-08-04T13:45:05.354Z,10.20
2018-08-04T13:47:34.360Z,6.40
2018-08-04T13:50:03.440Z,4.17
2018-08-04T13:52:32.553Z,4.13
2018-08-04T13:55:01.519Z,3.70
2018-08-04T13:57:30.608Z,7.57
2018-08-04T13:59:59.651Z,4.90
2018-08-04T14:02:28.774Z,3.10
2018-08-04T14:04:57.863Z,3.90
2018-08-04T14:07:26.959Z,2.73
2018-08-04T14:09:56.051Z,3.60
2018-08-04T14:12:25.097Z,4.93
2018-08-04T14:14:54.183Z,5.47
2018-08-04T14:17:23.333Z,4.90
2018-08-04T14:19:52.362Z,2.83
2018-08-04T14:22:21.482Z,4.53
2018-08-04T14:24:50.624Z,2.47
2018-08-04T14:27:19.695Z,3.30
2018-08-04T14:29:48.700Z,6.63
2018-08-04T14:32:17.759Z,4.20
2018-08-04T14:34:46.823Z,3.23
2018-08-04T14:37:15.866Z,5.30
2018-08-04T14:39:44.974Z,4.77
2018-08-04T14:42:14.111Z,2.60
2018-08-04T14:44:43.175Z,2.50
2018-08-04T14:47:12.210Z,7.90
2018-08-04T14:49:41.315Z,2.10
2018-08-04T14:52:10.445Z,4.10
2018-08-04T14:54:39.456Z,2.83
2018-08-04T14:57:08.475Z,2.10
2018-08-04T14:59:37.491Z,2.30
2018-08-04T15:02:07.259Z,3.10
2018-08-04T15:04:36.394Z,7.13
2018-08-04T15:07:05.587Z,5.70
2018-08-04T15:09:34.595Z,4.43
2018-08-04T15:12:03.648Z,5.53
2018-08-04T15:14:32.757Z,2.10
2018-08-04T15:17:01.880Z,2.80
2018-08-04T15:19:30.942Z,5.20
2018-08-04T15:22:00.063Z,4.97
2018-08-04T15:24:29.115Z,2.90
2018-08-04T15:26:58.167Z,2.27
2018-08-04T15:29:27.289Z,4.27
2018-08-04T15:31:56.694Z,4.20
2018-08-04T15:34:25.731Z,7.83
2018-08-04T15:36:54.836Z,3.50
2018-08-04T15:39:23.916Z,5.70
2018-08-04T15:41:52.926Z,4.00
2018-08-04T15:44:22.163Z,2.93
2018-08-04T15:46:51.536Z,5.53
2018-08-04T15:49:20.867Z,2.53
2018-08-04T15:51:50.191Z,2.40
2018-08-04T15:54:19.542Z,2.60
2018-08-04T15:56:49.215Z,2.73
2018-08-04T15:59:18.341Z,2.23
2018-08-04T16:01:47.561Z,2.50
2018-08-04T16:04:16.626Z,2.27
2018-08-04T16:06:45.886Z,3.47
2018-08-04T16:09:15.125Z,3.47
2018-08-04T16:11:44.209Z,4.73
2018-08-04T16:14:13.570Z,7.90
2018-08-04T16:16:42.803Z,4.23
2018-08-04T16:19:11.832Z,2.70
2018-08-04T16:21:40.813Z,10.90
2018-08-04T16:24:09.787Z,2.57
2018-08-04T16:26:38.799Z,5.33
2018-08-04T16:29:07.827Z,6.70
2018-08-04T16:31:36.924Z,2.40
2018-08-04T16:34:05.984Z,7.23
2018-08-04T16:36:35.023Z,3.40
2018-08-04T16:39:06.172Z,4.40
2018-08-04T16:41:36.124Z,5.73
2018-08-04T16:44:05.128Z,4.90
2018-08-04T16:46:35.159Z,6.40
2018-08-04T16:49:04.194Z,2.67
2018-08-04T16:51:33.236Z,4.00
2018-08-04T16:54:02.358Z,2.40
2018-08-04T16:56:31.428Z,3.70
2018-08-04T16:59:00.391Z,2.50
2018-08-04T17:01:29.391Z,2.43
2018-08-04T17:03:58.454Z,2.90
2018-08-04T17:06:27.517Z,5.70
2018-08-04T17:08:56.876Z,3.43
2018-08-04T17:11:25.955Z,3.33
2018-08-04T17:13:55.193Z,4.67
2018-08-04T17:16:24.632Z,2.53
2018-08-04T17:18:53.842Z,3.97
2018-08-04T17:21:23.059Z,2.37
2018-08-04T17:23:52.091Z,2.50
2018-08-04T17:26:21.305Z,13.23
2018-08-04T17:28:50.731Z,3.43
2018-08-04T17:31:19.723Z,2.13
2018-08-04T17:33:48.751Z,3.17
2018-08-04T17:36:18.130Z,5.13
2018-08-04T17:38:47.202Z,6.73
2018-08-04T17:41:16.555Z,2.73
2018-08-04T17:43:45.634Z,3.23
2018-08-04T17:46:14.802Z,3.40
2018-08-04T17:48:44.164Z,2.47
2018-08-04T17:51:13.558Z,4.30
2018-08-04T17:53:42.830Z,3.43
2018-08-04T17:56:11.860Z,3.30
2018-08-04T17:58:41.131Z,4.47
2018-08-04T18:01:10.238Z,2.30
2018-08-04T18:03:39.421Z,1.93
2018-08-04T18:06:08.440Z,2.90
2018-08-04T18:08:37.419Z,3.27
2018-08-04T18:11:06.468Z,4.90
2018-08-04T18:13:35.538Z,5.17
2018-08-04T18:16:06.879Z,5.77
2018-08-04T18:18:36.243Z,2.57
2018-08-04T18:21:05.497Z,5.70
2018-08-04T18:23:34.623Z,2.53
2018-08-04T18:26:03.900Z,4.90
2018-08-04T18:28:33.400Z,5.77
2018-08-04T18:31:02.458Z,2.63
2018-08-04T18:33:31.416Z,3.07
2018-08-04T18:36:00.381Z,3.73
2018-08-04T18:38:29.402Z,3.33
2018-08-04T18:40:58.722Z,2.63
2018-08-04T18:43:27.910Z,4.50
2018-08-04T18:45:57.455Z,2.47
2018-08-04T18:48:26.684Z,4.13
2018-08-04T18:50:55.849Z,2.20
2018-08-04T18:53:25.123Z,2.33
2018-08-04T18:55:54.395Z,2.90
2018-08-04T18:58:23.707Z,2.10
2018-08-04T19:00:53.080Z,7.47
2018-08-04T19:03:22.571Z,2.83
2018-08-04T19:05:52.372Z,11.67
2018-08-04T19:08:21.830Z,6.23
2018-08-04T19:10:51.237Z,2.30
2018-08-04T19:13:20.407Z,4.60
2018-08-04T19:15:49.468Z,4.33
2018-08-04T19:18:18.786Z,2.40
2018-08-04T19:20:47.928Z,2.17
2018-08-04T19:23:16.987Z,4.37
2018-08-04T19:25:46.447Z,6.70
2018-08-04T19:28:15.771Z,5.57
2018-08-04T19:30:45.197Z,5.50
2018-08-04T19:33:14.318Z,8.20
2018-08-04T19:35:43.605Z,3.77
2018-08-04T19:38:12.966Z,5.17
2018-08-04T19:40:42.268Z,2.83
2018-08-04T19:43:11.464Z,2.43
2018-08-04T19:45:40.500Z,3.80
2018-08-04T19:48:09.554Z,10.97
2018-08-04T19:50:38.475Z,5.30
2018-08-04T19:53:07.475Z,4.40
2018-08-04T19:55:36.485Z,2.50
2018-08-04T19:58:05.487Z,6.93
2018-08-04T20:00:34.523Z,3.33
2018-08-04T20:03:03.534Z,12.10
2018-08-04T20:05:32.481Z,6.77
2018-08-04T20:08:01.479Z,4.13
2018-08-04T20:10:30.459Z,4.20
2018-08-04T20:12:59.479Z,2.60
2018-08-04T20:15:28.430Z,7.00
2018-08-04T20:17:57.459Z,3.00
2018-08-04T20:20:26.471Z,5.67
2018-08-04T20:22:55.471Z,5.80
2018-08-04T20:25:24.537Z,6.23
2018-08-04T20:27:53.491Z,2.50
2018-08-04T20:30:22.448Z,4.70
2018-08-04T20:32:51.442Z,6.20
2018-08-04T20:35:20.408Z,2.90
2018-08-04T20:37:49.416Z,4.80
2018-08-04T20:40:18.441Z,4.80
2018-08-04T20:42:47.480Z,3.30
2018-08-04T20:45:16.447Z,2.87
2018-08-04T20:47:45.378Z,3.97
2018-08-04T20:50:14.371Z,4.40
2018-08-04T20:52:43.353Z,6.90
2018-08-04T20:55:12.370Z,6.40
2018-08-04T20:57:41.362Z,2.97
2018-08-04T21:00:10.317Z,3.57
2018-08-04T21:02:39.324Z,5.20
2018-08-04T21:05:08.303Z,3.73
2018-08-04T21:07:37.276Z,5.57
2018-08-04T21:10:06.395Z,6.30
2018-08-04T21:12:36.355Z,4.10
2018-08-04T21:15:05.371Z,8.10
2018-08-04T21:17:34.326Z,5.27
2018-08-04T21:20:03.380Z,4.33
2018-08-04T21:22:32.326Z,5.00
2018-08-04T21:25:01.298Z,7.50
2018-08-04T21:27:30.278Z,5.07
2018-08-04T21:29:59.268Z,5.13
2018-08-04T21:32:28.278Z,5.53
2018-08-04T21:34:57.284Z,5.70
2018-08-04T21:37:26.306Z,5.83
2018-08-04T21:39:55.266Z,7.93
2018-08-04T21:42:24.286Z,8.10
2018-08-04T21:44:53.262Z,6.13
2018-08-04T21:47:22.222Z,5.93
2018-08-04T21:49:51.210Z,6.00
2018-08-04T21:52:20.201Z,8.90
2018-08-04T21:54:49.129Z,5.97
2018-08-04T21:57:18.140Z,8.93
2018-08-04T21:59:47.146Z,7.13
2018-08-04T22:02:16.199Z,6.30
2018-08-04T22:04:45.169Z,5.97
2018-08-04T22:07:50.860Z,9.33
2018-08-04T22:10:19.812Z,5.90
2018-08-04T22:12:48.850Z,5.80
2018-08-04T22:15:17.770Z,10.47
2018-08-04T22:17:46.728Z,5.73
2018-08-04T22:20:17.694Z,8.57
2018-08-04T22:22:46.671Z,6.03
2018-08-04T22:25:16.879Z,7.20
2018-08-04T22:27:45.914Z,8.03
2018-08-04T22:30:16.075Z,5.90
2018-08-04T22:32:45.522Z,6.00
2018-08-04T22:35:14.524Z,7.03
2018-08-04T22:37:43.634Z,5.33
2018-08-04T22:40:13.614Z,7.70
2018-08-04T22:42:42.882Z,5.27
2018-08-04T22:45:53.775Z,5.80
2018-08-04T22:48:23.101Z,11.53
2018-08-04T22:50:52.111Z,6.20
2018-08-04T22:53:21.054Z,5.93
2018-08-04T22:55:49.998Z,11.33
2018-08-04T22:58:18.959Z,5.27
2018-08-04T23:00:47.913Z,8.70
2018-08-04T23:03:16.981Z,6.90
2018-08-04T23:05:45.935Z,6.20
2018-08-04T23:08:15.048Z,8.20
2018-08-04T23:10:44.433Z,8.70
2018-08-04T23:13:13.729Z,5.77
2018-08-04T23:15:42.719Z,7.23
2018-08-04T23:18:11.743Z,9.40
2018-08-04T23:20:40.730Z,5.30
2018-08-04T23:23:10.736Z,7.77
2018-08-04T23:25:39.681Z,6.37
2018-08-04T23:28:08.931Z,8.13
2018-08-04T23:30:37.892Z,6.57
2018-08-04T23:33:06.838Z,10.60
2018-08-04T23:35:35.807Z,6.50
2018-08-04T23:38:04.770Z,6.23
2018-08-04T23:40:33.780Z,8.17
2018-08-04T23:43:02.776Z,7.93
2018-08-04T23:45:31.753Z,5.53
2018-08-04T23:48:00.748Z,4.87
2018-08-04T23:50:29.702Z,7.33
2018-08-04T23:52:58.707Z,11.40
2018-08-04T23:55:27.660Z,5.07
2018-08-04T23:57:56.632Z,5.77
